createdAt,value
2019-01-29T00:00:49.093Z,92.92
2019-01-29T00:03:20.980Z,93.22
2019-01-29T00:05:52.899Z,92.83
2019-01-29T00:08:24.719Z,93.39
2019-01-29T00:10:56.857Z,93.43
2019-01-29T00:13:28.758Z,93.59
2019-01-29T00:16:00.741Z,92.98
2019-01-29T00:18:33.524Z,92.70
2019-01-29T00:21:05.785Z,92.81
2019-01-29T00:23:37.606Z,92.88
2019-01-29T00:26:09.775Z,93.52
2019-01-29T00:28:41.585Z,93.18
2019-01-29T00:31:13.479Z,92.94
2019-01-29T00:33:45.368Z,93.25
2019-01-29T00:36:17.206Z,93.63
2019-01-29T00:38:49.027Z,93.63
2019-01-29T00:41:20.930Z,94.14
2019-01-29T00:43:52.763Z,93.50
2019-01-29T00:46:24.509Z,93.97
2019-01-29T00:48:56.361Z,93.29
2019-01-29T00:51:28.451Z,93.49
2019-01-29T00:54:00.263Z,93.53
2019-01-29T00:56:32.099Z,94.06
2019-01-29T00:59:03.924Z,93.49
2019-01-29T01:01:35.745Z,94.27
2019-01-29T01:04:07.633Z,94.22
2019-01-29T01:06:39.742Z,93.67
2019-01-29T01:09:11.739Z,94.06
2019-01-29T01:11:43.656Z,94.32
2019-01-29T01:14:15.655Z,94.51
2019-01-29T01:16:47.419Z,94.59
2019-01-29T01:19:19.873Z,94.66
2019-01-29T01:21:51.923Z,93.78
2019-01-29T01:24:23.804Z,94.28
2019-01-29T01:26:55.588Z,94.56
2019-01-29T01:29:27.489Z,93.84
2019-01-29T01:31:59.581Z,93.79
2019-01-29T01:34:31.319Z,93.53
2019-01-29T01:37:03.218Z,94.00
2019-01-29T01:39:34.983Z,94.69
2019-01-29T01:42:06.972Z,93.75
2019-01-29T01:44:38.786Z,94.03
2019-01-29T01:47:10.679Z,93.77
2019-01-29T01:49:42.985Z,94.09
2019-01-29T01:52:14.897Z,94.02
2019-01-29T01:54:46.635Z,94.23
2019-01-29T01:57:18.502Z,93.83
2019-01-29T01:59:50.289Z,93.47
2019-01-29T02:02:22.194Z,94.12
2019-01-29T02:04:54.267Z,93.61
2019-01-29T02:07:26.098Z,93.44
2019-01-29T02:09:58.085Z,93.25
2019-01-29T02:12:30.060Z,92.96
2019-01-29T02:15:01.983Z,93.16
2019-01-29T02:17:33.915Z,93.39
2019-01-29T02:20:08.000Z,93.57
2019-01-29T02:22:39.940Z,93.66
2019-01-29T02:25:12.057Z,94.00
2019-01-29T02:27:44.066Z,94.10
2019-01-29T02:30:19.166Z,93.37
2019-01-29T02:32:51.125Z,93.62
2019-01-29T02:35:23.052Z,93.20
2019-01-29T02:37:56.228Z,93.02
2019-01-29T02:40:29.756Z,93.27
2019-01-29T02:43:01.553Z,92.71
2019-01-29T02:45:33.409Z,92.89
2019-01-29T02:48:05.616Z,92.63
2019-01-29T02:50:37.607Z,93.38
2019-01-29T02:53:18.088Z,92.91
2019-01-29T02:55:44.135Z,93.18
2019-01-29T02:58:16.058Z,93.41
2019-01-29T03:00:47.983Z,93.26
2019-01-29T03:03:20.023Z,93.06
2019-01-29T03:05:51.946Z,93.56
2019-01-29T03:08:23.823Z,92.91
2019-01-29T03:10:55.749Z,93.16
2019-01-29T03:13:27.609Z,93.20
2019-01-29T03:15:59.530Z,93.39
2019-01-29T03:18:31.395Z,93.29
2019-01-29T03:21:03.316Z,92.91
2019-01-29T03:23:35.242Z,93.30
2019-01-29T03:26:07.174Z,93.66
2019-01-29T03:28:39.440Z,92.57
2019-01-29T03:31:11.707Z,92.86
2019-01-29T03:33:43.606Z,92.70
2019-01-29T03:36:15.571Z,92.90
2019-01-29T03:38:47.482Z,92.55
2019-01-29T03:41:19.447Z,92.47
2019-01-29T03:43:51.343Z,92.48
2019-01-29T03:46:23.167Z,92.23
2019-01-29T03:48:55.004Z,92.67
2019-01-29T03:51:26.892Z,92.77
2019-01-29T03:53:58.800Z,92.49
2019-01-29T03:56:30.705Z,92.92
2019-01-29T03:59:02.462Z,92.38
2019-01-29T04:01:34.353Z,92.48
2019-01-29T04:04:06.319Z,92.05
2019-01-29T04:06:38.223Z,91.98
2019-01-29T04:09:10.531Z,92.17
2019-01-29T04:11:42.348Z,91.97
2019-01-29T04:14:14.169Z,91.71
2019-01-29T04:16:45.908Z,91.83
2019-01-29T04:19:17.889Z,91.44
2019-01-29T04:21:49.798Z,92.07
2019-01-29T04:24:21.557Z,91.91
2019-01-29T04:26:53.308Z,91.54
2019-01-29T04:29:25.187Z,91.96
2019-01-29T04:31:57.014Z,91.29
2019-01-29T04:34:28.857Z,91.75
2019-01-29T04:37:00.608Z,92.60
2019-01-29T04:39:32.436Z,92.17
2019-01-29T04:42:04.326Z,92.91
2019-01-29T04:44:36.084Z,92.22
2019-01-29T04:47:07.826Z,91.63
2019-01-29T04:49:39.583Z,91.83
2019-01-29T04:52:11.475Z,92.27
2019-01-29T04:54:43.305Z,91.80
2019-01-29T04:57:15.137Z,92.60
2019-01-29T04:59:46.897Z,92.17
2019-01-29T05:02:19.497Z,91.76
2019-01-29T05:04:51.359Z,92.48
2019-01-29T05:07:23.177Z,92.65
2019-01-29T05:09:54.940Z,92.56
2019-01-29T05:12:26.834Z,93.59
2019-01-29T05:14:58.847Z,91.67
2019-01-29T05:17:30.745Z,92.25
2019-01-29T05:20:02.825Z,92.33
2019-01-29T05:22:34.638Z,92.44
2019-01-29T05:25:07.285Z,92.25
2019-01-29T05:27:39.242Z,92.29
2019-01-29T05:30:20.575Z,92.06
2019-01-29T05:32:51.450Z,93.36
2019-01-29T05:35:23.282Z,93.13
2019-01-29T05:37:55.428Z,92.21
2019-01-29T05:40:27.265Z,93.04
2019-01-29T05:42:59.084Z,93.28
2019-01-29T05:45:30.985Z,92.20
2019-01-29T05:48:02.866Z,91.87
2019-01-29T05:50:34.700Z,91.88
2019-01-29T05:53:06.702Z,92.48
2019-01-29T05:55:38.681Z,91.96
2019-01-29T05:58:10.499Z,92.06
2019-01-29T06:00:42.389Z,91.69
2019-01-29T06:03:14.134Z,92.14
2019-01-29T06:05:45.960Z,92.00
2019-01-29T06:08:17.714Z,91.83
2019-01-29T06:10:49.534Z,91.28
2019-01-29T06:13:21.277Z,91.90
2019-01-29T06:15:53.347Z,91.73
2019-01-29T06:18:25.240Z,91.96
2019-01-29T06:20:57.140Z,91.80
2019-01-29T06:23:28.893Z,91.73
2019-01-29T06:26:00.820Z,92.20
2019-01-29T06:28:32.689Z,92.09
2019-01-29T06:31:04.578Z,91.81
2019-01-29T06:33:36.465Z,92.36
2019-01-29T06:36:09.343Z,92.04
2019-01-29T06:38:41.152Z,92.25
2019-01-29T06:41:12.982Z,92.07
2019-01-29T06:43:44.725Z,92.25
2019-01-29T06:46:16.612Z,92.54
2019-01-29T06:48:48.500Z,91.82
2019-01-29T06:51:20.253Z,92.73
2019-01-29T06:53:53.042Z,92.43
2019-01-29T06:56:24.911Z,92.02
2019-01-29T06:58:56.697Z,91.74
2019-01-29T07:01:28.852Z,92.16
2019-01-29T07:04:00.733Z,92.77
2019-01-29T07:06:32.638Z,92.02
2019-01-29T07:09:07.927Z,92.08
2019-01-29T07:11:40.282Z,91.79
2019-01-29T07:14:12.090Z,92.09
2019-01-29T07:16:56.891Z,92.28
2019-01-29T07:19:32.821Z,91.60
2019-01-29T07:22:04.829Z,91.67
2019-01-29T07:24:42.736Z,92.49
2019-01-29T07:27:10.294Z,90.78
2019-01-29T07:29:42.112Z,91.80
2019-01-29T07:32:14.011Z,92.05
2019-01-29T07:34:45.837Z,92.16
2019-01-29T07:37:21.992Z,91.99
2019-01-29T07:39:51.424Z,90.96
2019-01-29T07:42:23.315Z,90.98
2019-01-29T07:44:55.373Z,92.06
2019-01-29T07:47:27.195Z,91.48
2019-01-29T07:49:58.999Z,91.64
2019-01-29T07:52:31.874Z,92.22
2019-01-29T07:55:03.612Z,91.99
2019-01-29T07:57:35.437Z,91.94
2019-01-29T08:00:09.085Z,91.90
2019-01-29T08:02:41.191Z,91.80
2019-01-29T08:05:13.105Z,91.71
2019-01-29T08:07:44.937Z,92.18
2019-01-29T08:10:17.008Z,91.21
2019-01-29T08:12:48.918Z,91.53
2019-01-29T08:15:21.589Z,90.78
2019-01-29T08:17:53.517Z,91.39
2019-01-29T08:20:25.489Z,91.81
2019-01-29T08:22:57.248Z,91.92
2019-01-29T08:25:29.241Z,91.02
2019-01-29T08:28:01.223Z,90.50
2019-01-29T08:30:33.045Z,90.55
2019-01-29T08:33:04.951Z,91.16
2019-01-29T08:35:36.857Z,90.94
2019-01-29T08:38:09.443Z,91.14
2019-01-29T08:40:41.583Z,91.02
2019-01-29T08:43:13.334Z,91.78
2019-01-29T08:45:45.220Z,90.19
2019-01-29T08:48:16.976Z,90.55
2019-01-29T08:50:48.956Z,90.31
2019-01-29T08:53:20.780Z,90.96
2019-01-29T08:55:52.936Z,90.36
2019-01-29T08:58:27.258Z,90.67
2019-01-29T09:00:58.446Z,90.51
2019-01-29T09:03:30.217Z,90.77
2019-01-29T09:06:01.947Z,89.99
2019-01-29T09:08:33.781Z,90.21
2019-01-29T09:11:05.770Z,89.59
2019-01-29T09:13:37.515Z,89.27
2019-01-29T09:16:10.061Z,89.72
2019-01-29T09:18:41.882Z,90.30
2019-01-29T09:21:13.768Z,89.72
2019-01-29T09:23:45.518Z,89.83
2019-01-29T09:26:17.327Z,90.47
2019-01-29T09:28:49.072Z,90.63
2019-01-29T09:31:20.882Z,90.72
2019-01-29T09:33:52.713Z,89.87
2019-01-29T09:36:24.533Z,89.97
2019-01-29T09:38:56.429Z,89.85
2019-01-29T09:41:28.318Z,89.37
2019-01-29T09:44:00.140Z,90.24
2019-01-29T09:46:31.880Z,89.37
2019-01-29T09:49:03.700Z,88.83
2019-01-29T09:51:35.435Z,88.19
2019-01-29T09:54:08.365Z,88.75
2019-01-29T09:56:40.243Z,89.19
2019-01-29T09:59:11.985Z,88.90
2019-01-29T10:01:44.124Z,88.19
2019-01-29T10:04:15.872Z,88.96
2019-01-29T10:06:48.047Z,88.50
2019-01-29T10:09:20.189Z,88.26
2019-01-29T10:11:52.073Z,88.07
2019-01-29T10:14:23.971Z,88.34
2019-01-29T10:16:55.854Z,87.68
2019-01-29T10:19:27.610Z,87.88
2019-01-29T10:21:59.498Z,88.29
2019-01-29T10:24:31.338Z,89.18
2019-01-29T10:27:03.213Z,87.67
2019-01-29T10:29:34.968Z,87.89
2019-01-29T10:32:07.158Z,87.45
2019-01-29T10:34:38.971Z,88.02
2019-01-29T10:37:11.041Z,88.18
2019-01-29T10:39:42.795Z,87.61
2019-01-29T10:42:14.689Z,87.39
2019-01-29T10:44:46.518Z,88.08
2019-01-29T10:47:18.396Z,87.51
2019-01-29T10:49:50.296Z,87.42
2019-01-29T10:52:22.190Z,87.00
2019-01-29T10:54:53.940Z,86.89
2019-01-29T10:57:25.759Z,86.47
2019-01-29T10:59:57.651Z,85.92
2019-01-29T11:02:29.507Z,85.82
2019-01-29T11:05:01.371Z,85.89
2019-01-29T11:07:33.112Z,85.57
2019-01-29T11:10:06.772Z,86.35
2019-01-29T11:12:38.647Z,85.69
2019-01-29T11:15:27.546Z,85.56
2019-01-29T11:17:59.523Z,85.52
2019-01-29T11:20:31.659Z,84.60
2019-01-29T11:23:03.609Z,84.55
2019-01-29T11:25:35.499Z,85.53
2019-01-29T11:28:07.714Z,85.45
2019-01-29T11:30:39.665Z,85.52
2019-01-29T11:33:11.620Z,84.88
2019-01-29T11:35:43.514Z,84.62
2019-01-29T11:38:15.316Z,84.20
2019-01-29T11:40:47.227Z,84.40
2019-01-29T11:43:18.950Z,83.55
2019-01-29T11:45:53.633Z,83.96
2019-01-29T11:48:25.441Z,83.06
2019-01-29T11:50:57.328Z,84.12
2019-01-29T11:53:29.133Z,83.04
2019-01-29T11:56:04.722Z,82.07
2019-01-29T11:58:34.528Z,81.41
2019-01-29T12:01:08.468Z,80.43
2019-01-29T12:03:40.352Z,79.79
2019-01-29T12:06:12.170Z,79.27
2019-01-29T12:08:44.055Z,79.57
2019-01-29T12:11:16.073Z,79.63
2019-01-29T12:13:47.808Z,79.56
2019-01-29T12:16:20.774Z,79.30
2019-01-29T12:18:52.601Z,77.54
2019-01-29T12:21:24.584Z,79.22
2019-01-29T12:23:56.436Z,78.29
2019-01-29T12:26:28.529Z,77.07
2019-01-29T12:29:01.548Z,76.40
2019-01-29T12:31:33.442Z,75.03
2019-01-29T12:34:05.505Z,74.89
2019-01-29T12:36:37.245Z,72.04
2019-01-29T12:39:10.416Z,72.03
2019-01-29T12:41:42.313Z,73.00
2019-01-29T12:44:14.452Z,71.61
2019-01-29T12:46:46.284Z,71.21
2019-01-29T12:49:18.109Z,70.83
2019-01-29T12:52:02.591Z,72.18
2019-01-29T12:54:34.481Z,71.45
2019-01-29T12:57:06.385Z,71.31
2019-01-29T12:59:38.271Z,72.98
2019-01-29T13:02:10.159Z,73.11
2019-01-29T13:04:41.974Z,74.35
2019-01-29T13:07:14.063Z,74.46
2019-01-29T13:09:45.871Z,74.49
2019-01-29T13:12:17.693Z,72.61
2019-01-29T13:14:49.699Z,72.47
2019-01-29T13:17:21.518Z,74.35
2019-01-29T13:19:53.339Z,74.12
2019-01-29T13:22:25.097Z,69.47
2019-01-29T13:24:56.847Z,71.37
2019-01-29T13:27:28.672Z,70.19
2019-01-29T13:30:00.727Z,69.76
2019-01-29T13:32:33.601Z,68.67
2019-01-29T13:35:06.327Z,70.56
2019-01-29T13:37:38.221Z,69.50
2019-01-29T13:40:10.903Z,69.95
2019-01-29T13:42:42.800Z,70.11
2019-01-29T13:45:14.790Z,71.23
2019-01-29T13:47:46.685Z,72.70
2019-01-29T13:50:24.531Z,72.38
2019-01-29T13:52:56.272Z,72.21
2019-01-29T13:55:28.150Z,72.15
2019-01-29T13:58:00.041Z,72.63
2019-01-29T14:00:33.145Z,73.08
2019-01-29T14:03:05.393Z,71.86
2019-01-29T14:05:37.271Z,71.18
2019-01-29T14:08:09.926Z,71.68
2019-01-29T14:10:41.801Z,71.86
2019-01-29T14:13:13.762Z,71.06
2019-01-29T14:15:53.493Z,70.96
2019-01-29T14:18:29.562Z,71.04
2019-01-29T14:21:02.202Z,74.02
2019-01-29T14:23:33.945Z,73.07
2019-01-29T14:26:06.006Z,72.62
2019-01-29T14:28:37.824Z,73.18
2019-01-29T14:31:09.703Z,73.69
2019-01-29T14:33:41.590Z,73.71
2019-01-29T14:36:16.912Z,74.76
2019-01-29T14:39:24.023Z,73.14
2019-01-29T14:41:55.901Z,74.79
2019-01-29T14:44:38.326Z,76.33
2019-01-29T14:47:10.193Z,75.23
2019-01-29T14:49:42.078Z,75.66
2019-01-29T14:52:13.872Z,76.35
2019-01-29T14:54:45.680Z,76.22
2019-01-29T14:57:17.565Z,75.91
2019-01-29T14:59:49.378Z,76.39
2019-01-29T15:02:21.109Z,77.07
2019-01-29T15:04:53.072Z,75.58
2019-01-29T15:07:30.342Z,75.82
2019-01-29T15:09:58.322Z,74.87
2019-01-29T15:12:30.049Z,77.74
2019-01-29T15:15:01.789Z,77.86
2019-01-29T15:17:44.297Z,78.02
2019-01-29T15:20:16.290Z,75.58
2019-01-29T15:22:48.653Z,76.87
2019-01-29T15:25:20.464Z,79.35
2019-01-29T15:27:52.339Z,79.85
2019-01-29T15:30:28.038Z,78.72
2019-01-29T15:33:00.098Z,79.09
2019-01-29T15:35:31.991Z,78.13
2019-01-29T15:38:04.058Z,78.17
2019-01-29T15:40:36.134Z,78.90
2019-01-29T15:43:08.083Z,78.61
2019-01-29T15:45:40.052Z,78.81
2019-01-29T15:48:11.864Z,80.00
2019-01-29T15:50:43.748Z,81.09
2019-01-29T15:53:15.716Z,80.96
2019-01-29T15:55:47.534Z,81.11
2019-01-29T15:58:19.497Z,80.93
2019-01-29T16:00:51.455Z,80.37
2019-01-29T16:03:23.366Z,80.58
2019-01-29T16:05:55.191Z,80.76
2019-01-29T16:08:27.015Z,81.75
2019-01-29T16:10:58.833Z,81.44
2019-01-29T16:13:30.573Z,81.59
2019-01-29T16:16:02.463Z,81.95
2019-01-29T16:18:34.287Z,81.10
2019-01-29T16:21:06.181Z,81.64
2019-01-29T16:23:37.914Z,82.11
2019-01-29T16:26:09.794Z,82.14
2019-01-29T16:28:41.839Z,81.97
2019-01-29T16:31:13.725Z,81.95
2019-01-29T16:33:45.458Z,81.85
2019-01-29T16:36:17.416Z,81.88
2019-01-29T16:38:49.539Z,81.98
2019-01-29T16:41:21.666Z,82.09
2019-01-29T16:43:53.586Z,82.90
2019-01-29T16:46:25.474Z,83.33
2019-01-29T16:48:57.291Z,83.48
2019-01-29T16:51:29.190Z,83.09
2019-01-29T16:54:01.007Z,83.28
2019-01-29T16:56:32.845Z,83.79
2019-01-29T16:59:04.810Z,83.41
2019-01-29T17:01:36.899Z,82.68
2019-01-29T17:04:09.044Z,82.51
2019-01-29T17:06:40.956Z,82.23
2019-01-29T17:09:13.312Z,81.91
2019-01-29T17:11:46.330Z,83.09
2019-01-29T17:14:18.098Z,82.95
2019-01-29T17:16:49.854Z,81.67
2019-01-29T17:19:21.733Z,80.97
2019-01-29T17:21:53.670Z,80.46
2019-01-29T17:24:25.485Z,80.51
2019-01-29T17:26:57.303Z,80.72
2019-01-29T17:29:29.117Z,80.40
2019-01-29T17:32:00.955Z,80.13
2019-01-29T17:34:33.487Z,80.24
2019-01-29T17:37:05.464Z,80.80
2019-01-29T17:39:37.383Z,80.93
2019-01-29T17:42:10.227Z,80.91
2019-01-29T17:44:42.119Z,80.26
2019-01-29T17:47:13.886Z,80.59
2019-01-29T17:49:45.775Z,80.37
2019-01-29T17:52:17.679Z,81.21
2019-01-29T17:54:49.442Z,81.50
2019-01-29T17:57:21.286Z,82.43
2019-01-29T17:59:53.186Z,82.39
2019-01-29T18:02:25.019Z,81.95
2019-01-29T18:04:56.776Z,82.22
2019-01-29T18:07:28.809Z,82.74
2019-01-29T18:10:00.645Z,83.18
2019-01-29T18:12:32.398Z,82.88
2019-01-29T18:15:04.572Z,83.09
2019-01-29T18:17:36.402Z,82.45
2019-01-29T18:20:08.478Z,82.23
2019-01-29T18:22:40.389Z,82.07
2019-01-29T18:25:13.315Z,82.40
2019-01-29T18:27:45.293Z,82.08
2019-01-29T18:30:28.108Z,81.82
2019-01-29T18:32:59.940Z,81.33
2019-01-29T18:35:31.906Z,80.97
2019-01-29T18:38:04.848Z,81.55
2019-01-29T18:40:41.863Z,81.64
2019-01-29T18:43:13.701Z,81.31
2019-01-29T18:45:45.549Z,80.98
2019-01-29T18:48:17.486Z,80.84
2019-01-29T18:50:50.376Z,81.05
2019-01-29T18:53:22.132Z,80.76
2019-01-29T18:55:54.034Z,79.74
2019-01-29T18:58:25.862Z,79.31
2019-01-29T19:00:57.742Z,78.55
2019-01-29T19:03:29.534Z,78.60
2019-01-29T19:06:01.279Z,79.04
2019-01-29T19:08:33.044Z,78.85
2019-01-29T19:11:04.866Z,78.53
2019-01-29T19:13:37.768Z,78.70
2019-01-29T19:16:10.327Z,78.99
2019-01-29T19:18:42.156Z,78.86
2019-01-29T19:21:13.990Z,78.42
2019-01-29T19:23:45.829Z,78.70
2019-01-29T19:26:17.989Z,79.22
2019-01-29T19:28:49.744Z,79.26
2019-01-29T19:31:21.635Z,79.67
2019-01-29T19:33:53.523Z,79.36
2019-01-29T19:36:26.199Z,79.46
2019-01-29T19:38:58.049Z,79.42
2019-01-29T19:41:30.127Z,78.61
2019-01-29T19:44:01.880Z,79.14
2019-01-29T19:46:33.709Z,79.21
2019-01-29T19:49:05.623Z,79.38
2019-01-29T19:51:37.512Z,79.61
2019-01-29T19:54:10.024Z,79.88
2019-01-29T19:56:41.920Z,80.08
2019-01-29T19:59:13.761Z,80.09
2019-01-29T20:01:45.652Z,80.39
2019-01-29T20:04:17.486Z,80.07
2019-01-29T20:06:49.339Z,80.24
2019-01-29T20:09:21.315Z,80.18
2019-01-29T20:11:53.110Z,80.61
2019-01-29T20:14:24.946Z,80.18
2019-01-29T20:16:56.771Z,80.01
2019-01-29T20:19:28.689Z,80.22
2019-01-29T20:22:00.515Z,80.15
2019-01-29T20:24:32.354Z,80.57
2019-01-29T20:27:04.252Z,79.89
2019-01-29T20:29:36.023Z,80.52
2019-01-29T20:32:07.864Z,79.71
2019-01-29T20:34:39.637Z,80.05
2019-01-29T20:37:11.673Z,79.98
2019-01-29T20:39:43.615Z,79.78
2019-01-29T20:42:15.844Z,80.13
2019-01-29T20:44:47.692Z,79.74
2019-01-29T20:47:19.860Z,79.50
2019-01-29T20:49:52.023Z,79.77
2019-01-29T20:52:23.929Z,79.43
2019-01-29T20:54:56.256Z,79.63
2019-01-29T20:57:28.002Z,79.80
2019-01-29T21:00:00.294Z,79.35
2019-01-29T21:02:32.395Z,79.79
2019-01-29T21:05:04.419Z,78.89
2019-01-29T21:07:36.323Z,79.57
2019-01-29T21:10:11.589Z,79.54
2019-01-29T21:12:43.472Z,79.69
2019-01-29T21:15:17.032Z,79.46
2019-01-29T21:17:48.970Z,79.56
2019-01-29T21:20:27.409Z,79.60
2019-01-29T21:22:59.409Z,79.61
2019-01-29T21:25:31.247Z,80.03
2019-01-29T21:28:02.993Z,79.72
2019-01-29T21:30:38.247Z,79.35
2019-01-29T21:33:10.132Z,79.50
2019-01-29T21:35:42.045Z,79.85
2019-01-29T21:38:13.932Z,79.73
2019-01-29T21:40:45.773Z,79.66
2019-01-29T21:43:17.698Z,79.93
2019-01-29T21:45:49.541Z,79.82
2019-01-29T21:48:21.376Z,79.85
2019-01-29T21:50:53.242Z,79.67
2019-01-29T21:53:25.072Z,79.75
2019-01-29T21:55:57.419Z,80.11
2019-01-29T21:58:29.240Z,79.90
2019-01-29T22:01:01.015Z,79.66
2019-01-29T22:03:33.102Z,79.83
2019-01-29T22:06:05.595Z,79.46
2019-01-29T22:08:37.427Z,79.73
2019-01-29T22:11:09.952Z,79.90
2019-01-29T22:13:41.703Z,80.04
2019-01-29T22:16:13.552Z,79.90
2019-01-29T22:18:45.307Z,79.99
2019-01-29T22:21:17.330Z,79.78
2019-01-29T22:23:49.231Z,79.78
2019-01-29T22:26:21.404Z,79.94
2019-01-29T22:28:53.372Z,79.96
2019-01-29T22:31:25.282Z,79.96
2019-01-29T22:33:57.101Z,80.19
2019-01-29T22:36:29.012Z,80.03
2019-01-29T22:39:00.906Z,79.87
2019-01-29T22:41:34.276Z,79.98
2019-01-29T22:44:06.272Z,80.03
2019-01-29T22:46:38.112Z,80.07
2019-01-29T22:49:09.937Z,79.86
2019-01-29T22:51:41.771Z,80.19
2019-01-29T22:54:13.523Z,80.21
2019-01-29T22:56:45.688Z,79.99
2019-01-29T22:59:18.470Z,80.24
2019-01-29T23:01:50.417Z,80.23
2019-01-29T23:04:32.293Z,79.72
2019-01-29T23:07:37.879Z,80.08
2019-01-29T23:10:16.156Z,80.07
2019-01-29T23:12:49.054Z,80.11
2019-01-29T23:15:32.625Z,79.85
2019-01-29T23:18:00.296Z,79.89
2019-01-29T23:20:32.378Z,79.51
2019-01-29T23:23:04.126Z,79.69
2019-01-29T23:25:35.896Z,79.55
2019-01-29T23:28:07.795Z,79.59
2019-01-29T23:30:39.697Z,79.40
2019-01-29T23:33:11.530Z,79.59
2019-01-29T23:35:43.449Z,79.74
2019-01-29T23:38:15.198Z,79.50
2019-01-29T23:40:47.035Z,79.24
2019-01-29T23:43:18.935Z,79.44
2019-01-29T23:45:50.844Z,79.26
2019-01-29T23:48:22.751Z,79.03
2019-01-29T23:50:54.692Z,79.29
2019-01-29T23:53:26.529Z,79.54
2019-01-29T23:55:58.357Z,79.44
2019-01-29T23:58:30.200Z,79.05
